Terminal Aerodrome Forecast
Issued by NWS St Louis, MO

Home | Current Version | Previous Version | Text Only | Print | Product List | Glossary On
Versions: 1 2 3 4 5 6 7 8 9 10 11 12 13 14 15 16 17 18 19 20
619
FTUS43 KLSX 251741 AAA
TAFCOU
TAF AMD
KCOU 251741Z 2518/2618 09005KT 2SM RA BR BKN012
     FM251830 14005KT P6SM -SHRA VCTS OVC015CB
     FM252200 13005KT P6SM -SHRA VCTS OVC035CB
     FM252300 19004KT P6SM -SHRA VCTS OVC040CB
     FM260000 22004KT P6SM VCSH OVC045
     FM260500 27006KT P6SM VCSH OVC015
     FM260800 26006KT P6SM OVC007=

USA.gov is the U.S. government's official web portal to all federal, state and local government web resources and services.